Arapahoe, CO

11:10 AM MDT on August 25, 2016 (GMT -0600)
KWS | | Change Station

Elev 4252 ft 38.82 °N, 102.33 °W | Updated 4 minutes ago

Clear
Clear
66.7 °F
Feels Like 66.7 °F
N
7.0
Wind Variable Wind from East
Gusts 8.0 mph

Today
High -- | Low -- °F
--% Chance of Precip.
Yesterday
High -- | Low -- °F
Precip. -- in
Pressure 30.15 in
Visibility 10.0 miles
Clouds Clear
Dew Point 50 °F
Humidity 56%
Rainfall 0.00 in
Snow Depth Not available.
6:12 AM 7:28 PM
Last Quarter, 44% visible
METAR KITR 251653Z AUTO 10010G16KT 10SM CLR 21/07 A3026 RMK AO2 SLP210 T02060067
Pressure 30.15 in
Visibility 10.0 miles
Clouds Clear
Dew Point 50 °F
Humidity 56%
Rainfall 0.00 in
Snow Depth Not available.
6:12 AM 7:28 PM
Last Quarter, 44% visible
METAR KITR 251653Z AUTO 10010G16KT 10SM CLR 21/07 A3026 RMK AO2 SLP210 T02060067

10-Day Weather Forecast

Almanac

Astronomy

Aug. 25, 2016 Rise Set
Actual Time
Civil Twilight
Nautical Twilight
Astronomical Twilight
Moon
Length of Visible Light
Length of Day
Tomorrow will be .
, % of the Moon is Illuminated

Today's Extremes

State Highs State Lows

Community

WunderPhotos

Upload Photos

1,934,874 photos uploaded!

WunderBlog® & News

Nearby

Air Quality

  Air Quality AQ Index Pollutant
Not available.

Snow Depth

Station Depth Elevation

Earthquake Activity

City Distance Mag. Time & Date
Minimum magnitude displayed is 2.5.

Coastal Water Temperatures

Place Temperature

Stations

Nearby Weather Stations

Station Location Temp. Windchill Dew Point Humidity Wind Precip. Elev Updated Type
                   

Watches & Warnings

There are currently no watches in effect.